35NJ weather

Mid-State Heliport
Somerville, New Jersey, United States

Public forecast

Using degrees Fahrenheit for public forecast. Weather courtesy of forecast.io.

Closest aviation weather report (METAR) to Mid-State Heliport

Closest report is Allentown Queen City Municipal Airport, 10.7 nm (19.8 km) E. Retrieved 2020/02/20 04:35 UTC (0 seconds ago):

KXLL 200435Z AUTO 00000KT 10SM CLR 00/M08 A3040 RMK AO2

Closest aviation forecast (TAF) to Mid-State Heliport

Closest forecast is Lehigh Valley International Airport, 13.1 nm (24.2 km) ENE. Retrieved 2020-02-20 00:39 UTC (4 hours ago):

TAF KABE 192337Z 2000/2024 31006KT P6SM SCT250 FM200900 30005KT P6SM BKN200 FM202100 32007KT P6SM BKN080 FM202300 35007KT P6SM BKN100